Skip Navigation LinksHome page > Weather > Current weather Skip Navigation Links

Current Weather

Seattle-Tacoma Intl, Seattle

For information only: do not use for flight planning or navigation.
Latest weather
Observation time Monday, June 21, 2021 5:53 PM PDT
Local time Monday, June 21, 2021 6:58 PM PDT
Flight conditions Visual Meteorological Conditions
Winds
Wind direction West-Northwest (290°)
Wind speed 7 mph
Visibility 10 mi.
Sky condition
Ceiling unlimited
Cloud layer few clouds 6,000 ft.
Temperature 88°F
Dewpoint 56°F
Altimeter 29.82 in.Hg
Derived measurements
Relative humidity 34%
Heat index 88°F
Density altitude 2599 ft.
Sea-level pressure 29.82 in.Hg
Remarks
Automated weather observing station with precipitation discriminator.
METAR KSEA 220053Z 29006KT 10SM FEW060 31/13 A2982 RMK AO2 SLP099 T03110133

Settings

Location code

InnerDrive.Weather 4.0.6770.0 Release CLR 4.0.30319.42000
Copyright ©2018 Inner Drive Technology. All rights reserved. Portions Copyright ©1986-2018 David Braverman.

Find weather

Site navigation


Skip Navigation Links

Place info

Page info

PayPal - The safer, easier way to pay online!

Return home.

Copyright ©2021 Inner Drive Technology. Purveyors of fine, hand-crafted computer software. Page printed 2021-06-22T01:58:24 UTC.